Time;durP1;ratioP1;P1;durP2;ratioP2;P2;SDS_P1;SDS_P2;PMS_P1;PMS_P2;Temp;Humidity;BMP_temperature;BMP_pressure;BME280_temperature;BME280_humidity;BME280_pressure;Samples;Min_cycle;Max_cycle;Signal;HPM_P1;HPM_P2
2021/04/11 00:01:17;;;;;;;;;;;;;;;20.51;33.22;101232.84;2206192;39;115655;-56
2021/04/11 00:02:48;;;;;;;;;;;;;;;20.51;33.24;101237.63;2204726;39;115634;-58
2021/04/11 00:04:20;;;;;;;;;;;;;;;20.48;33.25;101239.09;2210364;39;115672;-57
2021/04/11 00:05:51;;;;;;;;;;;;;;;20.51;33.49;101234.81;2207874;39;115684;-58
2021/04/11 00:07:22;;;;;;;;;;;;;;;20.47;33.63;101234.59;2202964;39;115381;-55
2021/04/11 00:08:55;;;;;;;;;;;;;;;20.48;33.60;101235.44;2210683;39;115655;-57
2021/04/11 00:10:29;;;;;;;;;;;;;;;20.46;33.79;101234.91;2210709;39;115544;-57
2021/04/11 00:12:00;;;;;;;;;;;;;;;20.45;33.79;101231.25;2205654;39;115529;-56
2021/04/11 00:13:34;;;;;;;;;;;;;;;20.45;33.75;101239.66;2207067;39;114805;-56
2021/04/11 00:15:07;;;;;;;;;;;;;;;20.46;33.98;101238.53;2202178;39;117306;-56
2021/04/11 00:16:39;;;;;;;;;;;;;;;20.45;33.92;101238.81;2205928;39;115530;-57
2021/04/11 00:18:10;;;;;;;;;;;;;;;20.42;34.08;101237.47;2205461;39;113650;-57
2021/04/11 00:19:41;;;;;;;;;;;;;;;20.44;34.13;101242.78;2206839;39;114040;-56
2021/04/11 00:21:13;;;;;;;;;;;;;;;20.41;34.28;101236.63;2207014;39;113783;-56
2021/04/11 00:22:45;;;;;;;;;;;;;;;20.40;34.56;101240.56;2205991;39;113898;-56
2021/04/11 00:24:16;;;;;;;;;;;;;;;20.41;34.33;101235.78;2204758;39;113673;-58
2021/04/11 00:25:48;;;;;;;;;;;;;;;20.40;34.44;101243.38;2207179;39;113616;-58
2021/04/11 00:27:19;;;;;;;;;;;;;;;20.40;34.55;101242.53;2207609;39;114087;-56
2021/04/11 00:28:50;;;;;;;;;;;;;;;20.40;34.82;101245.34;2206267;39;114110;-57
2021/04/11 00:30:22;;;;;;;;;;;;;;;20.39;34.82;101243.69;2207161;39;113749;-58
2021/04/11 00:31:53;;;;;;;;;;;;;;;20.39;34.62;101240.91;2210345;39;113690;-57
2021/04/11 00:33:24;;;;;;;;;;;;;;;20.39;34.44;101235.28;2204216;39;113760;-56
2021/04/11 00:34:56;;;;;;;;;;;;;;;20.36;34.73;101233.88;2198616;39;114565;-58
2021/04/11 00:36:27;;;;;;;;;;;;;;;20.35;34.68;101235.03;2206072;39;113730;-57
2021/04/11 00:37:58;;;;;;;;;;;;;;;20.37;34.67;101235.56;2205313;39;113821;-56
2021/04/11 00:39:30;;;;;;;;;;;;;;;20.35;34.62;101237.81;2211404;39;113688;-56
2021/04/11 00:41:09;;;;;;;;;;;;;;;20.35;34.73;101232.22;2206240;39;114852;-56
2021/04/11 00:42:43;;;;;;;;;;;;;;;20.33;34.47;101231.69;2205782;39;114916;-56
2021/04/11 00:44:14;;;;;;;;;;;;;;;20.34;34.88;101227.75;2203620;39;115255;-57
2021/04/11 00:45:47;;;;;;;;;;;;;;;20.33;34.76;101226.09;2206323;39;114832;-56
2021/04/11 00:47:19;;;;;;;;;;;;;;;20.31;34.63;101225.53;2203637;39;114935;-57
2021/04/11 00:48:51;;;;;;;;;;;;;;;20.31;35.01;101230.31;2203027;39;114886;-57
2021/04/11 00:50:23;;;;;;;;;;;;;;;20.31;34.84;101224.69;2204244;39;114698;-58
2021/04/11 00:51:55;;;;;;;;;;;;;;;20.31;34.89;101233.13;2197978;39;114973;-56
2021/04/11 00:53:26;;;;;;;;;;;;;;;20.29;34.92;101229.75;2198382;39;115250;-58
2021/04/11 00:54:58;;;;;;;;;;;;;;;20.31;34.82;101231.16;2201909;39;115000;-57
2021/04/11 00:56:31;;;;;;;;;;;;;;;20.29;34.81;101235.38;2205779;39;115869;-57
2021/04/11 00:58:02;;;;;;;;;;;;;;;20.25;35.00;101228.69;2206699;39;115145;-57
2021/04/11 00:59:34;;;;;;;;;;;;;;;20.27;34.81;101226.41;2205273;39;114833;-58
2021/04/11 01:01:06;;;;;;;;;;;;;;;20.26;35.28;101225.56;2213590;39;115165;-57
2021/04/11 01:02:39;;;;;;;;;;;;;;;20.27;34.91;101232.84;2203164;39;115495;-56
2021/04/11 01:04:11;;;;;;;;;;;;;;;20.25;35.34;101226.72;2210305;39;116364;-57
2021/04/11 01:05:42;;;;;;;;;;;;;;;20.26;35.27;101230.38;2207268;39;115496;-58
2021/04/11 01:07:14;;;;;;;;;;;;;;;20.24;35.24;101232.63;2205108;39;115890;-57
2021/04/11 01:08:51;;;;;;;;;;;;;;;20.24;35.33;101229.81;2205480;39;115480;-57
2021/04/11 01:12:49;;;;;;;;;;;;;;;20.20;35.46;101217.53;2208124;39;114045;-56
2021/04/11 01:14:20;;;;;;;;;;;;;;;20.20;35.88;101226.78;2209334;39;115083;-57
2021/04/11 01:15:52;;;;;;;;;;;;;;;20.20;35.96;101223.97;2202367;39;116037;-55
2021/04/11 01:17:24;;;;;;;;;;;;;;;20.21;36.05;101222.00;2205284;39;116185;-56
2021/04/11 01:18:55;;;;;;;;;;;;;;;20.20;35.89;101218.38;2205381;39;116228;-57
2021/04/11 01:20:28;;;;;;;;;;;;;;;20.19;36.00;101221.47;2208610;39;115549;-57
2021/04/11 01:22:07;;;;;;;;;;;;;;;20.20;35.74;101217.53;2209008;39;114752;-58
2021/04/11 01:23:45;;;;;;;;;;;;;;;20.19;36.10;101227.91;2203245;39;116286;-56
2021/04/11 01:25:19;;;;;;;;;;;;;;;20.20;35.55;101217.53;2208080;39;113994;-57
2021/04/11 01:26:52;;;;;;;;;;;;;;;20.16;35.91;101222.06;2205754;39;113767;-58
2021/04/11 01:28:25;;;;;;;;;;;;;;;20.16;36.27;101224.88;2209550;39;113645;-58
2021/04/11 01:29:57;;;;;;;;;;;;;;;20.16;36.40;101222.91;2208388;39;113630;-57
2021/04/11 01:31:30;;;;;;;;;;;;;;;20.14;36.28;101229.94;2211251;39;113627;-56
2021/04/11 01:33:04;;;;;;;;;;;;;;;20.14;36.21;101224.31;2204511;39;113992;-58
2021/04/11 01:34:37;;;;;;;;;;;;;;;20.14;36.09;101222.34;2205480;39;113842;-57
2021/04/11 01:36:09;;;;;;;;;;;;;;;20.14;36.12;101221.53;2209180;39;113625;-56
2021/04/11 01:37:41;;;;;;;;;;;;;;;20.14;36.10;101219.56;2213765;39;113912;-56
2021/04/11 01:39:15;;;;;;;;;;;;;;;20.14;36.18;101221.53;2213360;39;113862;-58
2021/04/11 01:40:55;;;;;;;;;;;;;;;20.12;36.55;101221.84;2205184;39;113636;-57
2021/04/11 01:42:26;;;;;;;;;;;;;;;20.13;36.68;101222.66;2209747;39;113732;-58
2021/04/11 01:43:57;;;;;;;;;;;;;;;20.12;36.65;101226.59;2211352;39;113717;-58
2021/04/11 01:45:30;;;;;;;;;;;;;;;20.10;36.82;101224.09;2212838;39;113982;-57
2021/04/11 01:47:01;;;;;;;;;;;;;;;20.08;36.88;101222.72;2204203;39;114340;-57
2021/04/11 01:48:33;;;;;;;;;;;;;;;20.07;37.13;101221.06;2210364;39;115287;-56
2021/04/11 01:50:06;;;;;;;;;;;;;;;20.09;36.84;101222.41;2211980;39;114877;-56
2021/04/11 01:51:40;;;;;;;;;;;;;;;20.07;36.89;101215.44;2211831;39;114637;-58
2021/04/11 01:53:12;;;;;;;;;;;;;;;20.06;37.04;101222.19;2212220;39;114821;-58
2021/04/11 01:54:45;;;;;;;;;;;;;;;20.05;37.04;101220.50;2210855;39;114800;-57
2021/04/11 01:56:17;;;;;;;;;;;;;;;20.05;36.66;101226.97;2205024;39;114040;-55
2021/04/11 01:57:52;;;;;;;;;;;;;;;20.04;36.56;101228.09;2203289;39;114846;-57
2021/04/11 01:59:24;;;;;;;;;;;;;;;20.04;36.70;101233.69;2207614;39;114919;-56
2021/04/11 02:01:05;;;;;;;;;;;;;;;20.03;36.87;101234.00;2213595;39;114901;-58
2021/04/11 02:02:36;;;;;;;;;;;;;;;20.05;36.77;101234.53;2209224;39;114485;-56
2021/04/11 02:04:07;;;;;;;;;;;;;;;20.02;36.90;101235.97;2203766;39;114706;-58
2021/04/11 02:05:43;;;;;;;;;;;;;;;20.04;36.89;101230.88;2208830;39;114908;-56
2021/04/11 02:07:14;;;;;;;;;;;;;;;20.02;37.16;101232.34;2210130;39;114692;-56
2021/04/11 02:08:48;;;;;;;;;;;;;;;19.99;37.22;101231.78;2199645;39;115606;-56
2021/04/11 02:10:21;;;;;;;;;;;;;;;19.99;37.06;101234.59;2205504;39;114539;-56
2021/04/11 02:11:53;;;;;;;;;;;;;;;19.98;37.47;101234.91;2210063;39;115647;-58
2021/04/11 02:13:26;;;;;;;;;;;;;;;19.98;37.26;101235.75;2211919;39;115544;-57
2021/04/11 02:14:58;;;;;;;;;;;;;;;19.97;37.20;101228.47;2206445;39;116037;-57
2021/04/11 02:16:32;;;;;;;;;;;;;;;19.95;37.19;101236.31;2202837;39;115652;-57
2021/04/11 02:18:10;;;;;;;;;;;;;;;19.95;36.78;101233.50;2210425;39;116021;-56
2021/04/11 02:19:41;;;;;;;;;;;;;;;19.95;37.23;101236.31;2211406;39;115458;-58
2021/04/11 02:21:17;;;;;;;;;;;;;;;19.95;37.13;101244.72;2210190;39;115553;-57
2021/04/11 02:22:49;;;;;;;;;;;;;;;19.94;36.99;101243.06;2204386;39;115565;-57
2021/04/11 02:24:20;;;;;;;;;;;;;;;19.92;37.05;101242.53;2208510;39;115549;-56
2021/04/11 02:25:52;;;;;;;;;;;;;;;19.92;36.97;101242.53;2216512;39;115533;-57
2021/04/11 02:27:24;;;;;;;;;;;;;;;19.91;36.77;101240.84;2201625;39;115617;-57
2021/04/11 02:28:55;;;;;;;;;;;;;;;19.91;37.21;101240.84;2205863;39;114552;-56
2021/04/11 02:30:27;;;;;;;;;;;;;;;19.90;36.92;101244.78;2204541;39;115477;-57
2021/04/11 02:31:58;;;;;;;;;;;;;;;19.89;36.92;101239.50;2209364;39;113634;-57
2021/04/11 02:33:30;;;;;;;;;;;;;;;19.89;37.28;101248.75;2212497;39;113623;-58
2021/04/11 02:35:03;;;;;;;;;;;;;;;19.88;37.05;101243.44;2211682;39;113789;-56
2021/04/11 02:36:37;;;;;;;;;;;;;;;19.88;37.05;101249.88;2210651;39;113854;-58
2021/04/11 02:38:09;;;;;;;;;;;;;;;19.86;37.31;101249.31;2209912;39;114129;-57
2021/04/11 02:39:41;;;;;;;;;;;;;;;19.89;36.97;101247.91;2211491;39;114133;-58
2021/04/11 02:41:13;;;;;;;;;;;;;;;19.88;36.95;101252.69;2208334;39;114220;-57
2021/04/11 02:42:45;;;;;;;;;;;;;;;19.88;36.91;101251.84;2204536;39;113974;-57
2021/04/11 02:44:16;;;;;;;;;;;;;;;19.86;37.09;101251.28;2202815;39;113729;-58
2021/04/11 02:45:48;;;;;;;;;;;;;;;19.84;37.29;101254.41;2198428;39;113696;-56
2021/04/11 02:47:20;;;;;;;;;;;;;;;19.85;36.92;101261.66;2205197;39;113914;-57
2021/04/11 02:48:54;;;;;;;;;;;;;;;19.83;37.12;101257.50;2214791;39;113794;-57
2021/04/11 02:50:29;;;;;;;;;;;;;;;19.82;37.36;101253.00;2205978;39;113918;-55
2021/04/11 02:52:02;;;;;;;;;;;;;;;19.82;37.00;101253.84;2213526;39;113813;-57
2021/04/11 02:53:34;;;;;;;;;;;;;;;19.81;36.95;101257.78;2206100;39;115001;-57
2021/04/11 02:55:08;;;;;;;;;;;;;;;19.80;37.44;101255.28;2210823;39;114871;-56
2021/04/11 02:56:39;;;;;;;;;;;;;;;19.81;36.96;101257.78;2209020;39;115179;-57
2021/04/11 02:58:11;;;;;;;;;;;;;;;19.80;36.94;101258.94;2209413;39;114049;-56
2021/04/11 02:59:44;;;;;;;;;;;;;;;19.80;36.98;101267.34;2201541;39;114923;-56
2021/04/11 03:01:20;;;;;;;;;;;;;;;19.77;37.31;101262.31;2206188;39;114757;-58
2021/04/11 03:02:51;;;;;;;;;;;;;;;19.76;36.91;101265.44;2207245;39;114922;-56
2021/04/11 03:04:23;;;;;;;;;;;;;;;19.77;37.33;101269.88;2212768;39;114898;-56
2021/04/11 03:05:56;;;;;;;;;;;;;;;19.76;37.47;101268.22;2208660;39;114601;-58
2021/04/11 03:07:37;;;;;;;;;;;;;;;19.78;37.20;101269.59;2210079;39;115037;-58
2021/04/11 03:09:10;;;;;;;;;;;;;;;19.75;37.28;101270.19;2205974;39;116761;-58
2021/04/11 03:10:46;;;;;;;;;;;;;;;19.75;37.28;101266.56;2210187;39;115011;-56
2021/04/11 03:12:18;;;;;;;;;;;;;;;19.76;37.29;101273.84;2203696;39;114018;-57
2021/04/11 03:13:51;;;;;;;;;;;;;;;19.76;37.51;101273.84;2203213;39;115084;-56
2021/04/11 03:15:23;;;;;;;;;;;;;;;19.75;37.61;101274.97;2211196;39;115476;-58
2021/04/11 03:16:55;;;;;;;;;;;;;;;19.72;37.54;101279.19;2198835;39;115518;-58
2021/04/11 03:18:27;;;;;;;;;;;;;;;19.70;37.70;101275.00;2205833;39;115872;-56
2021/04/11 03:20:05;;;;;;;;;;;;;;;19.68;37.70;101266.88;2207524;39;115549;-57
2021/04/11 03:21:39;;;;;;;;;;;;;;;19.70;37.32;101272.22;2207383;39;115580;-57
2021/04/11 03:23:11;;;;;;;;;;;;;;;19.67;37.67;101279.22;2202003;39;115600;-56
2021/04/11 03:24:43;;;;;;;;;;;;;;;19.70;37.39;101277.81;2209163;39;115579;-56
2021/04/11 03:26:26;;;;;;;;;;;;;;;19.68;37.26;101272.50;2211532;39;116491;-56
2021/04/11 03:28:04;;;;;;;;;;;;;;;19.66;37.21;101274.78;2201040;39;115728;-58
2021/04/11 03:29:39;;;;;;;;;;;;;;;19.66;37.65;101276.72;2202036;39;115705;-57
2021/04/11 03:31:19;;;;;;;;;;;;;;;19.65;37.45;101283.47;2205083;39;115678;-55
2021/04/11 03:32:53;;;;;;;;;;;;;;;19.64;37.42;101271.41;2210902;39;115490;-58
2021/04/11 03:34:25;;;;;;;;;;;;;;;19.62;37.41;101282.09;2211081;39;116119;-57
2021/04/11 03:35:57;;;;;;;;;;;;;;;19.66;37.32;101279.53;2201977;39;115641;-57
2021/04/11 03:37:30;;;;;;;;;;;;;;;19.62;37.65;101276.50;2206974;39;114014;-56
2021/04/11 03:39:03;;;;;;;;;;;;;;;19.63;37.29;101283.75;2211795;39;113669;-58
2021/04/11 03:40:38;;;;;;;;;;;;;;;19.63;37.44;101282.91;2212335;39;113651;-55
2021/04/11 03:42:13;;;;;;;;;;;;;;;19.61;37.28;101286.03;2207078;39;113953;-56
2021/04/11 03:43:45;;;;;;;;;;;;;;;19.59;37.62;101285.47;2211634;39;113739;-56
2021/04/11 03:45:17;;;;;;;;;;;;;;;19.61;37.58;101282.38;2211201;39;113931;-57
2021/04/11 03:46:50;;;;;;;;;;;;;;;19.57;37.53;101287.75;2206509;39;114183;-56
2021/04/11 03:48:31;;;;;;;;;;;;;;;19.59;37.50;101279.03;2211298;39;113945;-58
2021/04/11 03:50:02;;;;;;;;;;;;;;;19.59;37.19;101282.66;2211854;39;113787;-56
2021/04/11 03:51:36;;;;;;;;;;;;;;;19.56;37.23;101279.63;2211320;39;113592;-58
2021/04/11 03:53:15;;;;;;;;;;;;;;;19.57;37.05;101278.50;2211500;39;113759;-58
2021/04/11 03:54:47;;;;;;;;;;;;;;;19.54;37.26;101272.34;2208602;39;113711;-56
2021/04/11 03:56:21;;;;;;;;;;;;;;;19.54;36.99;101282.72;2208515;39;113726;-56
2021/04/11 03:57:56;;;;;;;;;;;;;;;19.51;35.07;101286.94;2210657;39;114038;-57
2021/04/11 03:59:29;;;;;;;;;;;;;;;19.52;36.58;101283.03;2217111;39;113940;-56
2021/04/11 04:01:04;;;;;;;;;;;;;;;19.52;36.90;101285.81;2213635;39;114764;-58
2021/04/11 04:02:38;;;;;;;;;;;;;;;19.54;36.89;101288.31;2209063;39;114893;-55
2021/04/11 04:04:15;;;;;;;;;;;;;;;19.51;37.10;101288.91;2211564;39;114950;-58
2021/04/11 04:05:46;;;;;;;;;;;;;;;19.49;36.98;101285.56;2211676;39;113798;-56
2021/04/11 04:07:20;;;;;;;;;;;;;;;19.49;37.09;101293.97;2209471;39;115837;-58
2021/04/11 04:08:51;;;;;;;;;;;;;;;19.47;36.92;101285.03;2210164;39;114731;-57
2021/04/11 04:10:25;;;;;;;;;;;;;;;19.49;36.78;101289.19;2211184;39;114890;-56
2021/04/11 04:11:56;;;;;;;;;;;;;;;19.47;36.98;101294.28;2203992;39;114847;-55
2021/04/11 04:13:27;;;;;;;;;;;;;;;19.47;36.91;101301.84;2207262;39;114811;-57
2021/04/11 04:15:03;;;;;;;;;;;;;;;19.44;37.10;101297.63;2211111;39;115037;-58
2021/04/11 04:16:44;;;;;;;;;;;;;;;19.45;36.99;101310.53;2204843;39;114874;-56
2021/04/11 04:18:25;;;;;;;;;;;;;;;19.44;37.21;101313.66;2210240;39;114727;-57
2021/04/11 04:20:05;;;;;;;;;;;;;;;19.43;36.93;101306.31;2211810;39;114721;-58
2021/04/11 04:21:48;;;;;;;;;;;;;;;19.42;36.76;101318.66;2214574;39;114803;-57
2021/04/11 04:23:19;;;;;;;;;;;;;;;19.41;36.82;101316.97;2210318;39;115616;-56
2021/04/11 04:25:02;;;;;;;;;;;;;;;19.40;36.82;101318.09;2211303;39;115607;-57
2021/04/11 04:26:36;;;;;;;;;;;;;;;19.40;37.05;101315.28;2205644;39;115078;-58
2021/04/11 04:28:17;;;;;;;;;;;;;;;19.40;37.03;101323.69;2207041;39;115546;-57
2021/04/11 04:29:48;;;;;;;;;;;;;;;19.40;36.96;101316.13;2211209;39;115516;-57
2021/04/11 04:31:29;;;;;;;;;;;;;;;19.40;36.91;101323.69;2206429;39;115651;-56
2021/04/11 04:33:10;;;;;;;;;;;;;;;19.38;37.22;101326.81;2211315;39;115590;-57
2021/04/11 04:34:44;;;;;;;;;;;;;;;19.38;37.06;101324.00;2212056;39;115571;-57
2021/04/11 04:36:25;;;;;;;;;;;;;;;19.38;37.10;101334.38;2204222;39;116053;-58
2021/04/11 04:37:59;;;;;;;;;;;;;;;19.37;36.95;101327.09;2209585;39;115674;-56
2021/04/11 04:39:34;;;;;;;;;;;;;;;19.35;37.20;101330.19;2210458;39;115524;-57
2021/04/11 04:41:25;;;;;;;;;;;;;;;19.34;37.20;101331.34;2211956;39;115684;-57
2021/04/11 04:42:59;;;;;;;;;;;;;;;19.33;37.22;101323.22;2210803;39;115504;-57
2021/04/11 04:44:30;;;;;;;;;;;;;;;19.35;37.08;101323.78;2207146;39;115591;-56
2021/04/11 04:46:02;;;;;;;;;;;;;;;19.31;37.22;101325.44;2209944;39;113913;-57
2021/04/11 04:47:43;;;;;;;;;;;;;;;19.30;37.17;101332.22;2211351;39;113799;-56
2021/04/11 04:49:14;;;;;;;;;;;;;;;19.28;37.33;101326.03;2203262;39;113781;-58
2021/04/11 04:50:50;;;;;;;;;;;;;;;19.28;37.58;101326.88;2208849;39;114157;-57
2021/04/11 04:52:26;;;;;;;;;;;;;;;19.30;37.24;101326.59;2209795;39;113667;-57
2021/04/11 04:54:04;;;;;;;;;;;;;;;19.30;37.27;101329.41;2209133;39;113873;-58
2021/04/11 04:55:36;;;;;;;;;;;;;;;19.28;37.63;101335.28;2207079;39;113805;-57
2021/04/11 04:57:07;;;;;;;;;;;;;;;19.28;37.45;101329.69;2211862;39;113875;-56
2021/04/11 04:58:42;;;;;;;;;;;;;;;19.26;37.16;101337.53;2210275;39;113708;-57
2021/04/11 05:00:15;;;;;;;;;;;;;;;19.28;37.47;101337.25;2211134;39;113674;-56
2021/04/11 05:01:49;;;;;;;;;;;;;;;19.29;37.23;101341.72;2211602;39;114482;-59
2021/04/11 05:03:24;;;;;;;;;;;;;;;19.25;37.72;101346.25;2204371;39;113662;-56
2021/04/11 05:04:57;;;;;;;;;;;;;;;19.24;37.65;101347.38;2207902;39;113740;-56
2021/04/11 05:06:32;;;;;;;;;;;;;;;19.24;37.59;101341.75;2214711;39;114263;-58
2021/04/11 05:08:08;;;;;;;;;;;;;;;19.22;37.69;101347.66;2205032;39;114788;-57
2021/04/11 05:09:43;;;;;;;;;;;;;;;19.25;37.62;101349.03;2207986;39;114563;-58
2021/04/11 05:11:15;;;;;;;;;;;;;;;19.23;37.58;101352.13;2210217;39;114784;-55
2021/04/11 05:12:51;;;;;;;;;;;;;;;19.20;37.84;101349.91;2209449;39;115708;-58
2021/04/11 05:14:28;;;;;;;;;;;;;;;19.22;37.57;101353.25;2208490;39;115166;-58
2021/04/11 05:16:03;;;;;;;;;;;;;;;19.20;37.69;101363.09;2207947;39;115030;-56
2021/04/11 05:17:36;;;;;;;;;;;;;;;19.21;37.63;101359.16;2210885;39;114077;-58
2021/04/11 05:19:10;;;;;;;;;;;;;;;19.18;37.54;101360.56;2209538;39;114772;-56
2021/04/11 05:20:43;;;;;;;;;;;;;;;19.18;37.88;101366.16;2204396;39;114867;-58
2021/04/11 05:22:18;;;;;;;;;;;;;;;19.17;37.82;101370.06;2202248;39;114150;-57
2021/04/11 05:23:51;;;;;;;;;;;;;;;19.17;38.25;101372.06;2206562;39;114741;-56
2021/04/11 05:25:26;;;;;;;;;;;;;;;19.15;38.10;101377.94;2210754;39;114837;-58
2021/04/11 05:27:03;;;;;;;;;;;;;;;19.16;37.94;101379.63;2208839;39;114760;-56
2021/04/11 05:28:38;;;;;;;;;;;;;;;19.16;38.13;101376.84;2210491;39;114806;-57
2021/04/11 05:30:13;;;;;;;;;;;;;;;19.15;38.13;101375.16;2211316;39;115539;-57
2021/04/11 05:31:45;;;;;;;;;;;;;;;19.16;37.96;101382.44;2210472;39;114510;-56
2021/04/11 05:33:20;;;;;;;;;;;;;;;19.18;38.32;101382.97;2205219;39;115871;-57
2021/04/11 05:34:51;;;;;;;;;;;;;;;19.22;38.46;101380.41;2203868;39;115970;-57
2021/04/11 05:36:25;;;;;;;;;;;;;;;19.25;38.49;101383.50;2210344;39;115429;-57
2021/04/11 05:38:02;;;;;;;;;;;;;;;19.31;38.67;101389.88;2213799;39;115847;-58
2021/04/11 05:39:43;;;;;;;;;;;;;;;19.34;38.65;101398.56;2217375;39;115736;-57
2021/04/11 05:41:18;;;;;;;;;;;;;;;19.36;38.70;101399.09;2202070;39;115887;-55
2021/04/11 05:42:59;;;;;;;;;;;;;;;19.39;38.47;101404.16;2200437;39;116121;-57
2021/04/11 05:44:36;;;;;;;;;;;;;;;19.42;38.77;101408.31;2199972;39;115713;-57
2021/04/11 05:46:14;;;;;;;;;;;;;;;19.44;38.69;101400.50;2209986;39;115763;-58
2021/04/11 05:47:54;;;;;;;;;;;;;;;19.48;38.81;101396.00;2211349;39;115535;-58
2021/04/11 05:49:31;;;;;;;;;;;;;;;19.51;39.02;101401.84;2211388;39;115656;-56
2021/04/11 05:51:05;;;;;;;;;;;;;;;19.55;38.98;101407.72;2211488;39;115665;-57
2021/04/11 05:52:41;;;;;;;;;;;;;;;19.61;39.20;101406.56;2208830;39;115467;-56
2021/04/11 05:54:13;;;;;;;;;;;;;;;19.65;39.34;101413.25;2210006;39;113702;-58
2021/04/11 05:55:48;;;;;;;;;;;;;;;19.70;39.27;101418.81;2210649;39;113951;-56
2021/04/11 05:57:24;;;;;;;;;;;;;;;19.75;38.73;101423.56;2210721;39;114027;-57
2021/04/11 05:58:58;;;;;;;;;;;;;;;19.79;39.01;101424.66;2204011;39;113735;-58
2021/04/11 06:00:32;;;;;;;;;;;;;;;19.85;38.89;101429.91;2206357;39;113628;-57
2021/04/11 06:02:04;;;;;;;;;;;;;;;19.89;38.58;101430.19;2206067;39;114656;-58
2021/04/11 06:03:36;;;;;;;;;;;;;;;19.94;38.46;101432.94;2210108;39;113744;-55
2021/04/11 06:05:09;;;;;;;;;;;;;;;19.99;38.38;101436.53;2205668;39;113796;-57
2021/04/11 06:06:51;;;;;;;;;;;;;;;20.04;38.33;101438.44;2210731;39;113841;-56
2021/04/11 06:08:25;;;;;;;;;;;;;;;20.10;38.10;101442.91;2211388;39;113648;-58
2021/04/11 06:10:00;;;;;;;;;;;;;;;20.15;37.93;101451.28;2210130;39;113668;-58
2021/04/11 06:11:37;;;;;;;;;;;;;;;20.18;37.65;101447.88;2216200;39;114112;-57
2021/04/11 06:13:12;;;;;;;;;;;;;;;20.25;37.88;101444.75;2206549;39;113967;-58
2021/04/11 06:14:47;;;;;;;;;;;;;;;20.30;37.59;101453.16;2207686;39;113668;-58
2021/04/11 06:16:20;;;;;;;;;;;;;;;20.36;38.34;101451.94;2209912;39;114967;-55
2021/04/11 06:17:53;;;;;;;;;;;;;;;20.39;37.92;101454.19;2203356;39;114955;-57
2021/04/11 06:19:24;;;;;;;;;;;;;;;20.43;37.43;101458.06;2209054;39;114894;-56
2021/04/11 06:20:55;;;;;;;;;;;;;;;20.47;37.45;101455.50;2210423;39;114821;-56
2021/04/11 06:22:34;;;;;;;;;;;;;;;20.52;37.37;101463.88;2206454;39;115598;-56
2021/04/11 06:24:06;;;;;;;;;;;;;;;20.56;37.60;101459.34;2210380;39;115550;-57
2021/04/11 06:25:42;;;;;;;;;;;;;;;20.60;37.67;101455.66;2209192;39;114941;-56
2021/04/11 06:27:15;;;;;;;;;;;;;;;20.65;37.63;101464.03;2204938;39;115219;-56
2021/04/11 06:28:51;;;;;;;;;;;;;;;20.70;38.21;101460.31;2209298;39;114874;-57
2021/04/11 06:30:26;;;;;;;;;;;;;;;20.73;37.45;101468.97;2208618;39;114800;-57
2021/04/11 06:32:07;;;;;;;;;;;;;;;20.77;37.66;101474.84;2210543;39;115258;-58
2021/04/11 06:33:38;;;;;;;;;;;;;;;20.80;37.56;101466.66;2214408;39;115252;-57
2021/04/11 06:35:10;;;;;;;;;;;;;;;20.84;37.32;101476.19;2205897;39;115432;-56
2021/04/11 06:36:43;;;;;;;;;;;;;;;20.88;37.06;101472.75;2216288;39;114905;-57
2021/04/11 06:38:17;;;;;;;;;;;;;;;20.92;37.13;101471.03;2213462;39;115457;-57
2021/04/11 06:39:49;;;;;;;;;;;;;;;20.96;36.80;101477.72;2210648;39;115688;-58
2021/04/11 06:41:30;;;;;;;;;;;;;;;20.99;37.00;101477.94;2202730;39;115916;-57
2021/04/11 06:43:04;;;;;;;;;;;;;;;21.03;37.19;101470.59;2210861;39;115703;-57
2021/04/11 06:44:45;;;;;;;;;;;;;;;21.07;36.86;101480.13;2211865;39;115290;-58
2021/04/11 06:46:30;;;;;;;;;;;;;;;21.11;37.14;101477.56;2211630;39;115775;-57
2021/04/11 06:48:10;;;;;;;;;;;;;;;21.15;36.72;101481.47;2211430;39;115685;-56
2021/04/11 06:49:51;;;;;;;;;;;;;;;21.18;36.76;101481.69;2212222;39;115492;-56
2021/04/11 06:51:34;;;;;;;;;;;;;;;21.21;36.68;101474.66;2207071;39;115666;-57
2021/04/11 06:53:17;;;;;;;;;;;;;;;21.25;36.72;101481.34;2212016;39;115025;-58
2021/04/11 06:55:02;;;;;;;;;;;;;;;21.29;36.56;101485.22;2210915;39;115659;-56
2021/04/11 06:56:37;;;;;;;;;;;;;;;21.33;36.50;101494.72;2199843;39;114575;-57
2021/04/11 06:58:11;;;;;;;;;;;;;;;21.35;37.89;101498.06;2204213;39;115597;-56
2021/04/11 06:59:52;;;;;;;;;;;;;;;21.41;37.37;101493.22;2205396;39;115657;-56
2021/04/11 07:01:33;;;;;;;;;;;;;;;21.44;37.00;101492.63;2207906;39;114147;-56
2021/04/11 07:03:11;;;;;;;;;;;;;;;21.47;36.91;101501.28;2211642;39;113759;-58
2021/04/11 07:04:52;;;;;;;;;;;;;;;21.50;37.25;101503.50;2210039;39;113572;-56
2021/04/11 07:06:33;;;;;;;;;;;;;;;21.53;36.63;101508.50;2210174;39;114100;-56
2021/04/11 07:08:19;;;;;;;;;;;;;;;21.58;36.35;101507.59;2205112;39;113801;-58
2021/04/11 07:10:00;;;;;;;;;;;;;;;21.61;36.45;101516.28;2210026;39;113788;-58
2021/04/11 07:11:41;;;;;;;;;;;;;;;21.64;36.65;101512.03;2211219;39;113675;-56
2021/04/11 07:13:22;;;;;;;;;;;;;;;21.66;37.01;101509.75;2199591;39;113735;-56
2021/04/11 07:15:00;;;;;;;;;;;;;;;21.69;36.79;101514.75;2195937;39;113672;-55
2021/04/11 07:16:31;;;;;;;;;;;;;;;21.72;36.29;101505.72;2196375;39;113962;-57
2021/04/11 07:18:13;;;;;;;;;;;;;;;21.74;36.48;101514.69;2196784;39;114089;-57
2021/04/11 07:19:54;;;;;;;;;;;;;;;21.77;36.69;101516.91;2195080;39;113762;-56
2021/04/11 07:21:45;;;;;;;;;;;;;;;21.80;36.47;101509.84;2199398;39;114048;-58
2021/04/11 07:23:26;;;;;;;;;;;;;;;21.84;36.55;101522.16;2198447;39;113841;-56
2021/04/11 07:24:57;;;;;;;;;;;;;;;21.87;36.33;101521.53;2199136;39;113994;-58
2021/04/11 07:26:30;;;;;;;;;;;;;;;21.89;36.41;101520.13;2196669;39;115162;-57
2021/04/11 07:28:02;;;;;;;;;;;;;;;21.94;36.25;101527.69;2198691;39;114826;-57
2021/04/11 07:29:35;;;;;;;;;;;;;;;21.95;36.53;101521.72;2198614;39;113899;-57
2021/04/11 07:31:14;;;;;;;;;;;;;;;21.99;36.04;101519.97;2199432;39;115027;-56
2021/04/11 07:32:45;;;;;;;;;;;;;;;22.00;36.13;101518.00;2203455;39;115062;-55
2021/04/11 07:34:26;;;;;;;;;;;;;;;22.03;35.73;101528.66;2196750;39;114819;-58
2021/04/11 07:35:58;;;;;;;;;;;;;;;22.05;35.86;101527.22;2199080;39;114822;-56
2021/04/11 07:37:40;;;;;;;;;;;;;;;22.06;35.91;101520.44;2201425;39;117981;-58
2021/04/11 07:39:21;;;;;;;;;;;;;;;22.09;35.66;101524.59;2198840;39;114857;-58
2021/04/11 07:40:52;;;;;;;;;;;;;;;22.12;35.81;101527.66;2199377;39;114981;-56
2021/04/11 07:42:33;;;;;;;;;;;;;;;22.14;35.66;101525.38;2198154;39;114882;-57
2021/04/11 07:44:12;;;;;;;;;;;;;;;22.18;35.82;101531.22;2201973;39;114760;-57
2021/04/11 07:45:51;;;;;;;;;;;;;;;22.20;35.45;101531.75;2198433;39;114819;-56
2021/04/11 07:47:31;;;;;;;;;;;;;;;22.24;35.77;101534.81;2203619;39;114939;-58
2021/04/11 07:49:10;;;;;;;;;;;;;;;22.27;36.00;101540.66;2199697;39;115909;-57
2021/04/11 07:50:51;;;;;;;;;;;;;;;22.29;36.02;101535.56;2198672;39;115642;-58
2021/04/11 07:55:09;;;;;;;;;;;;;;;22.35;35.78;101534.31;2200416;39;114056;-58
2021/04/11 07:56:41;;;;;;;;;;;;;;;22.38;35.76;101530.91;2201780;39;115949;-58
2021/04/11 07:58:23;;;;;;;;;;;;;;;22.40;35.53;101527.75;2199784;39;115616;-58
2021/04/11 07:59:54;;;;;;;;;;;;;;;22.41;35.47;101533.09;2198519;39;115597;-57
2021/04/11 08:01:29;;;;;;;;;;;;;;;22.44;35.87;101538.09;2196398;39;115827;-57
2021/04/11 08:03:10;;;;;;;;;;;;;;;22.45;35.54;101542.59;2199435;39;115537;-56
2021/04/11 08:04:51;;;;;;;;;;;;;;;22.47;35.75;101548.78;2202077;39;116496;-57
2021/04/11 08:06:32;;;;;;;;;;;;;;;22.49;35.50;101543.66;2202418;39;115601;-56